Monday, May 30, 2016
10:46 UTC
  |  Log In   |  Register Free
Airport Search:

Carmi Municipal Airport
(KCUL)

Carmi Municipal Airport Diagram
No Airport Diagram Available

FAA data valid effective Mar 31 2016 - May 26 2016 (unless otherwise noted).

 
 
 
 
 
 
 
 
 
 
 
 
 
 
Current Aviation Weather for KCUL

Weather Summary


The most recent METAR observation for CUL was updated at: 12:55 UTC
METAR for KCUL is not available. Closest METAR is for KFWC
KCUL  (most recent observation was updatred at 30:10 UTC)
301035Z AUTO 00000KT 10SM CLR 17/16 A3005 RMK AO2 T01660163

KFWC  (22.1 nm SE)   (most recent observation was updated at 30:10 UTC)
301035Z AUTO 00000KT 7SM CLR 17/17 A3006 RMK AO1 T01680167

KHSB  (26.2 nm NE)   (most recent observation was updated at 30:10 UTC)
301035Z AUTO 00000KT 5SM BR CLR 17/16 A3006 RMK AO2 T01650164

TAF for KCUL is not available.
KEVV  (28.1 nm NW)   (most recent observation was updatred at 30:05 UTC)
300520Z 3006/3106 00000KT P6SM SKC FM301300 33004KT P6SM SKC FM301900 33005KT P6SM SCT250 FM310100 00000KT P6SM SCT250


GlobalAir.com is loading additional information.
 Current Weather at CUL
64.0 F° (17.5 C°)

North winds at 4.6 mph
Pressure:
30.04 in
Humidity:
98%
Wind:
North at 4.6 mph
Dew Point:
62.8 F° (17.1 C°)
Visibility:
10.00 mi
CUL NOAA Radar




Find All Airport Services Find A Hotel Find A Rental Car Find A Golf Course Find A Restaurant $100 Hamburger



Airport Weather Forecast for KCUL

Translated METAR for KCUL (1035 UTC)
METAR:
KCUL 301035Z AUTO 00000KT 10SM CLR 17/16 A3005 RMK AO2 T01660163
Conditions at:
KCUL (Carmi Muni, IL) observed 1035 UTC 30 May 2016
Temperature:
17°C (62.6°F)
Dewpoint:
16°C (60.8°F) [RH = 93.8]
Pressure:
30.05 inches Hg (1017.6 mb)
Winds:
from the N (000 degrees) at 0 mph (0 knots: 0 m/s)
Visibility:
10 mile(s)
Ceiling:
at least 12,000 feet AGL
Clouds:
Clear below 12,000 feet AGL
Remarks:
site is un-manned
site is automated and HAS a precipitation sensor

Translated TAF for KEVV (Evansville Rgnl, IN) (0520 UTC)
TAF text:
KEVV 300520Z 3006/3106 00000KT P6SM SKC
Forecast period:
Monday May 30 2016 06:00 UTC - Tuesday May 31 2016 06:00 UTC
Forecast type:
FROM: standard forecast or significant change
Winds:
from the N (000 degrees) at 0 mph (0 knots: 0 m/s)
Visibility:
6 or more mile(s) (9.7+ km)
Ceiling:
at least 12,000 feet AGL
Clouds:
Clear Skies
Weather:
no significant weather observed at this time
TAF text:
FM301300 33004KT P6SM SKC
Forecast period:
Monday May 30 2016 13:00 UTC - Monday May 30 2016 19:00 UTC
Forecast type:
FROM: standard forecast or significant change
Winds:
from the NNW (330 degrees) at 4.6 mph (4 knots: 2.1 m/s)
Visibility:
6 or more mile(s) (9.7+ km)
Ceiling:
at least 12,000 feet AGL
Clouds:
Clear Skies
Weather:
no significant weather observed at this time
TAF text:
FM301900 33005KT P6SM SCT250
Forecast period:
Monday May 30 2016 19:00 UTC - Tuesday May 31 2016 01:00 UTC
Forecast type:
FROM: standard forecast or significant change
Winds:
from the NNW (330 degrees) at 5.8 mph (5 knots: 2.6 m/s)
Visibility:
6 or more mile(s) (9.7+ km)
Ceiling:
at least 12,000 feet AGL
Clouds:
Scattered Clouds at 25,000 feet AGL
Weather:
no significant weather observed at this time
TAF text:
FM310100 00000KT P6SM SCT250
Forecast period:
Tuesday May 31 2016 01:00 UTC - Tuesday May 31 2016 06:00 UTC
Forecast type:
FROM: standard forecast or significant change
Winds:
from the N (000 degrees) at 0 mph (0 knots: 0 m/s)
Visibility:
6 or more mile(s) (9.7+ km)
Ceiling:
at least 12,000 feet AGL
Clouds:
Scattered Clouds at 25,000 feet AGL
Weather:
no significant weather observed at this time
FBO's on the Field
FBO Company Facility Photos Services Transportation Aviation Fuel Prices: Prices include tax
Catering Weather Repair Courtesy Rental Type 100LL JetA JetA+ MOGAS 8087
 
Carmi Municipal Airport

This FBO has not yet been rated
FS:Shell
Last Updated: May-20
Login to update fuel prices
SS:
Contact Carmi Municipal AirportMore FBO Information
 
Add another FBO Facility Photos Catering Weather Repair Courtesy Rental Type 100LL JetA JetA+ MOGAS 8087
Services Transportation Aviation Fuel Prices: Prices include tax


model-print
model-print
model-print
model-print